Terminal Aerodrome Forecast
Issued by NWS

Home | Current Version | Previous Version | Text Only | Print | Product List | Glossary On
Versions: 1 2 3 4 5 6 7 8 9 10 11 12 13 14 15 16 17
000
FTUS45 KTFX 051128
TAFHLN
TAF
KHLN 051128Z 0512/0612 29008KT P6SM VCSH OVC015
     FM051400 29005KT P6SM BKN020 OVC030
     FM051800 21008KT P6SM -RA OVC025
     FM060200 27010KT P6SM VCSH OVC035=

USA.gov is the U.S. government's official web portal to all federal, state and local government web resources and services.